sensor_id;sensor_type;location;lat;lon;timestamp;P1;durP1;ratioP1;P2;durP2;ratioP2
37609;SDS011;23457;51.966;8.230;2023-03-26T00:01:00;21.65;;;5.70;;
37609;SDS011;23457;51.966;8.230;2023-03-26T00:03:31;26.73;;;6.88;;
37609;SDS011;23457;51.966;8.230;2023-03-26T00:06:00;21.90;;;7.30;;
37609;SDS011;23457;51.966;8.230;2023-03-26T00:08:33;22.98;;;7.80;;
37609;SDS011;23457;51.966;8.230;2023-03-26T00:11:02;20.23;;;7.50;;
37609;SDS011;23457;51.966;8.230;2023-03-26T00:13:30;21.52;;;8.30;;
37609;SDS011;23457;51.966;8.230;2023-03-26T00:15:57;24.10;;;7.10;;
37609;SDS011;23457;51.966;8.230;2023-03-26T00:18:24;24.65;;;8.18;;
37609;SDS011;23457;51.966;8.230;2023-03-26T00:20:59;24.55;;;7.60;;
37609;SDS011;23457;51.966;8.230;2023-03-26T00:23:28;22.05;;;7.65;;
37609;SDS011;23457;51.966;8.230;2023-03-26T00:25:55;21.17;;;8.23;;
37609;SDS011;23457;51.966;8.230;2023-03-26T00:28:22;26.23;;;7.82;;
37609;SDS011;23457;51.966;8.230;2023-03-26T00:30:56;24.60;;;8.05;;
37609;SDS011;23457;51.966;8.230;2023-03-26T00:33:27;22.90;;;7.05;;
37609;SDS011;23457;51.966;8.230;2023-03-26T00:35:55;20.85;;;6.72;;
37609;SDS011;23457;51.966;8.230;2023-03-26T00:38:24;22.48;;;6.32;;
37609;SDS011;23457;51.966;8.230;2023-03-26T00:40:52;20.73;;;5.78;;
37609;SDS011;23457;51.966;8.230;2023-03-26T00:43:20;18.00;;;5.97;;
37609;SDS011;23457;51.966;8.230;2023-03-26T00:45:48;15.88;;;6.00;;
37609;SDS011;23457;51.966;8.230;2023-03-26T00:50:45;20.95;;;4.85;;
37609;SDS011;23457;51.966;8.230;2023-03-26T00:53:13;15.67;;;5.87;;
37609;SDS011;23457;51.966;8.230;2023-03-26T00:55:41;18.15;;;5.63;;
37609;SDS011;23457;51.966;8.230;2023-03-26T00:58:10;18.42;;;5.65;;
37609;SDS011;23457;51.966;8.230;2023-03-26T01:00:41;19.45;;;5.63;;
37609;SDS011;23457;51.966;8.230;2023-03-26T01:03:16;14.88;;;5.88;;
37609;SDS011;23457;51.966;8.230;2023-03-26T01:05:57;18.77;;;5.82;;
37609;SDS011;23457;51.966;8.230;2023-03-26T01:08:31;17.23;;;5.50;;
37609;SDS011;23457;51.966;8.230;2023-03-26T01:11:13;20.58;;;7.55;;
37609;SDS011;23457;51.966;8.230;2023-03-26T01:14:01;12.68;;;5.47;;
37609;SDS011;23457;51.966;8.230;2023-03-26T01:16:40;25.42;;;6.75;;
37609;SDS011;23457;51.966;8.230;2023-03-26T01:19:12;18.13;;;6.10;;
37609;SDS011;23457;51.966;8.230;2023-03-26T01:21:45;15.32;;;5.40;;
37609;SDS011;23457;51.966;8.230;2023-03-26T01:24:12;17.17;;;7.07;;
37609;SDS011;23457;51.966;8.230;2023-03-26T01:26:42;14.95;;;6.20;;
37609;SDS011;23457;51.966;8.230;2023-03-26T01:35:16;12.55;;;5.80;;
37609;SDS011;23457;51.966;8.230;2023-03-26T01:38:06;11.43;;;5.70;;
37609;SDS011;23457;51.966;8.230;2023-03-26T01:40:49;15.02;;;6.38;;
37609;SDS011;23457;51.966;8.230;2023-03-26T01:45:51;10.70;;;6.30;;
37609;SDS011;23457;51.966;8.230;2023-03-26T01:48:19;13.63;;;6.07;;
37609;SDS011;23457;51.966;8.230;2023-03-26T01:50:46;13.40;;;6.65;;
37609;SDS011;23457;51.966;8.230;2023-03-26T01:53:14;18.45;;;7.13;;
37609;SDS011;23457;51.966;8.230;2023-03-26T01:58:25;14.98;;;5.70;;
37609;SDS011;23457;51.966;8.230;2023-03-26T02:01:00;15.32;;;5.45;;
37609;SDS011;23457;51.966;8.230;2023-03-26T02:03:46;11.27;;;5.75;;
37609;SDS011;23457;51.966;8.230;2023-03-26T02:09:28;14.35;;;5.93;;
37609;SDS011;23457;51.966;8.230;2023-03-26T02:11:59;14.85;;;5.32;;
37609;SDS011;23457;51.966;8.230;2023-03-26T02:14:30;22.85;;;5.57;;
37609;SDS011;23457;51.966;8.230;2023-03-26T02:16:58;10.80;;;5.10;;
37609;SDS011;23457;51.966;8.230;2023-03-26T02:19:26;13.90;;;5.53;;
37609;SDS011;23457;51.966;8.230;2023-03-26T02:21:52;13.13;;;4.97;;
37609;SDS011;23457;51.966;8.230;2023-03-26T02:24:26;16.10;;;5.38;;
37609;SDS011;23457;51.966;8.230;2023-03-26T02:26:55;16.95;;;5.65;;
37609;SDS011;23457;51.966;8.230;2023-03-26T02:29:23;15.15;;;5.00;;
37609;SDS011;23457;51.966;8.230;2023-03-26T02:31:52;18.67;;;6.22;;
37609;SDS011;23457;51.966;8.230;2023-03-26T02:34:18;16.45;;;4.93;;
37609;SDS011;23457;51.966;8.230;2023-03-26T02:36:49;17.17;;;5.53;;
37609;SDS011;23457;51.966;8.230;2023-03-26T02:39:16;20.40;;;6.10;;
37609;SDS011;23457;51.966;8.230;2023-03-26T02:41:50;16.52;;;5.68;;
37609;SDS011;23457;51.966;8.230;2023-03-26T02:44:17;12.70;;;5.20;;
37609;SDS011;23457;51.966;8.230;2023-03-26T02:46:56;15.23;;;5.95;;
37609;SDS011;23457;51.966;8.230;2023-03-26T02:49:46;21.63;;;5.63;;
37609;SDS011;23457;51.966;8.230;2023-03-26T02:52:24;21.77;;;6.03;;
37609;SDS011;23457;51.966;8.230;2023-03-26T02:54:54;22.98;;;6.35;;
37609;SDS011;23457;51.966;8.230;2023-03-26T02:57:23;24.43;;;6.57;;
37609;SDS011;23457;51.966;8.230;2023-03-26T03:00:15;22.88;;;6.88;;
37609;SDS011;23457;51.966;8.230;2023-03-26T03:03:03;20.08;;;7.57;;
37609;SDS011;23457;51.966;8.230;2023-03-26T03:05:30;21.38;;;7.18;;
37609;SDS011;23457;51.966;8.230;2023-03-26T03:08:14;20.33;;;7.15;;
37609;SDS011;23457;51.966;8.230;2023-03-26T03:11:13;26.95;;;7.53;;
37609;SDS011;23457;51.966;8.230;2023-03-26T03:13:43;20.08;;;8.43;;
37609;SDS011;23457;51.966;8.230;2023-03-26T03:16:14;24.95;;;7.45;;
37609;SDS011;23457;51.966;8.230;2023-03-26T03:18:42;20.63;;;7.50;;
37609;SDS011;23457;51.966;8.230;2023-03-26T03:21:08;25.55;;;7.95;;
37609;SDS011;23457;51.966;8.230;2023-03-26T03:23:35;21.60;;;7.85;;
37609;SDS011;23457;51.966;8.230;2023-03-26T03:26:11;26.60;;;9.02;;
37609;SDS011;23457;51.966;8.230;2023-03-26T03:28:44;32.83;;;9.38;;
37609;SDS011;23457;51.966;8.230;2023-03-26T03:31:13;28.90;;;8.77;;
37609;SDS011;23457;51.966;8.230;2023-03-26T03:33:41;31.50;;;10.10;;
37609;SDS011;23457;51.966;8.230;2023-03-26T03:36:09;30.40;;;10.35;;
37609;SDS011;23457;51.966;8.230;2023-03-26T03:38:52;31.50;;;10.10;;
37609;SDS011;23457;51.966;8.230;2023-03-26T03:41:20;31.13;;;10.38;;
37609;SDS011;23457;51.966;8.230;2023-03-26T03:43:47;30.42;;;9.90;;
37609;SDS011;23457;51.966;8.230;2023-03-26T03:46:19;25.17;;;9.63;;
37609;SDS011;23457;51.966;8.230;2023-03-26T03:48:47;31.30;;;10.02;;
37609;SDS011;23457;51.966;8.230;2023-03-26T03:51:23;32.78;;;10.70;;
37609;SDS011;23457;51.966;8.230;2023-03-26T03:53:58;31.63;;;10.60;;
37609;SDS011;23457;51.966;8.230;2023-03-26T03:56:40;32.67;;;11.15;;
37609;SDS011;23457;51.966;8.230;2023-03-26T03:59:13;37.55;;;12.75;;
37609;SDS011;23457;51.966;8.230;2023-03-26T04:01:41;32.78;;;12.27;;
37609;SDS011;23457;51.966;8.230;2023-03-26T04:04:15;29.67;;;12.38;;
37609;SDS011;23457;51.966;8.230;2023-03-26T04:06:57;37.42;;;13.02;;
37609;SDS011;23457;51.966;8.230;2023-03-26T04:09:29;39.45;;;13.80;;
37609;SDS011;23457;51.966;8.230;2023-03-26T04:12:00;38.95;;;13.27;;
37609;SDS011;23457;51.966;8.230;2023-03-26T04:14:27;42.17;;;14.23;;
37609;SDS011;23457;51.966;8.230;2023-03-26T04:16:59;42.40;;;14.98;;
37609;SDS011;23457;51.966;8.230;2023-03-26T04:19:28;45.85;;;16.52;;
37609;SDS011;23457;51.966;8.230;2023-03-26T04:21:55;49.72;;;17.13;;
37609;SDS011;23457;51.966;8.230;2023-03-26T04:24:32;54.85;;;16.05;;
37609;SDS011;23457;51.966;8.230;2023-03-26T04:27:22;42.75;;;14.73;;
37609;SDS011;23457;51.966;8.230;2023-03-26T04:30:02;42.35;;;14.75;;
37609;SDS011;23457;51.966;8.230;2023-03-26T04:32:32;44.38;;;17.73;;
37609;SDS011;23457;51.966;8.230;2023-03-26T04:35:00;47.40;;;16.65;;
37609;SDS011;23457;51.966;8.230;2023-03-26T04:37:32;41.35;;;15.90;;
37609;SDS011;23457;51.966;8.230;2023-03-26T04:40:22;38.58;;;16.15;;
37609;SDS011;23457;51.966;8.230;2023-03-26T04:43:00;48.65;;;17.50;;
37609;SDS011;23457;51.966;8.230;2023-03-26T04:45:47;52.05;;;17.88;;
37609;SDS011;23457;51.966;8.230;2023-03-26T04:48:16;48.92;;;16.75;;
37609;SDS011;23457;51.966;8.230;2023-03-26T04:50:43;47.97;;;16.10;;
37609;SDS011;23457;51.966;8.230;2023-03-26T04:53:15;47.60;;;17.05;;
37609;SDS011;23457;51.966;8.230;2023-03-26T04:56:07;41.42;;;16.70;;
37609;SDS011;23457;51.966;8.230;2023-03-26T04:59:20;54.28;;;16.90;;
37609;SDS011;23457;51.966;8.230;2023-03-26T05:01:56;44.65;;;16.10;;
37609;SDS011;23457;51.966;8.230;2023-03-26T05:04:26;51.78;;;15.35;;
37609;SDS011;23457;51.966;8.230;2023-03-26T05:06:57;50.22;;;17.60;;
37609;SDS011;23457;51.966;8.230;2023-03-26T05:09:33;46.20;;;14.40;;
37609;SDS011;23457;51.966;8.230;2023-03-26T05:12:11;54.17;;;15.65;;
37609;SDS011;23457;51.966;8.230;2023-03-26T05:15:04;48.08;;;14.35;;
37609;SDS011;23457;51.966;8.230;2023-03-26T05:17:48;43.30;;;13.90;;
37609;SDS011;23457;51.966;8.230;2023-03-26T05:20:35;51.13;;;14.15;;
37609;SDS011;23457;51.966;8.230;2023-03-26T05:23:04;52.97;;;14.10;;
37609;SDS011;23457;51.966;8.230;2023-03-26T05:25:35;45.60;;;13.32;;
37609;SDS011;23457;51.966;8.230;2023-03-26T05:28:08;48.67;;;13.75;;
37609;SDS011;23457;51.966;8.230;2023-03-26T05:30:48;49.90;;;12.80;;
37609;SDS011;23457;51.966;8.230;2023-03-26T05:33:16;44.55;;;11.40;;
37609;SDS011;23457;51.966;8.230;2023-03-26T05:36:00;47.85;;;10.93;;
37609;SDS011;23457;51.966;8.230;2023-03-26T05:38:32;48.13;;;11.10;;
37609;SDS011;23457;51.966;8.230;2023-03-26T05:41:01;43.80;;;10.73;;
37609;SDS011;23457;51.966;8.230;2023-03-26T05:43:30;46.03;;;10.40;;
37609;SDS011;23457;51.966;8.230;2023-03-26T05:46:20;36.40;;;9.23;;
37609;SDS011;23457;51.966;8.230;2023-03-26T05:48:48;38.55;;;9.07;;
37609;SDS011;23457;51.966;8.230;2023-03-26T05:51:17;44.55;;;9.23;;
37609;SDS011;23457;51.966;8.230;2023-03-26T05:53:56;44.75;;;10.18;;
37609;SDS011;23457;51.966;8.230;2023-03-26T05:56:41;38.50;;;9.48;;
37609;SDS011;23457;51.966;8.230;2023-03-26T05:59:46;45.65;;;8.55;;
37609;SDS011;23457;51.966;8.230;2023-03-26T06:02:31;37.28;;;8.68;;
37609;SDS011;23457;51.966;8.230;2023-03-26T06:05:16;40.63;;;9.02;;
37609;SDS011;23457;51.966;8.230;2023-03-26T06:08:05;43.85;;;8.15;;
37609;SDS011;23457;51.966;8.230;2023-03-26T06:10:36;41.63;;;9.48;;
37609;SDS011;23457;51.966;8.230;2023-03-26T06:13:04;43.37;;;9.63;;
37609;SDS011;23457;51.966;8.230;2023-03-26T06:15:34;49.88;;;10.18;;
37609;SDS011;23457;51.966;8.230;2023-03-26T06:18:21;43.35;;;10.27;;
37609;SDS011;23457;51.966;8.230;2023-03-26T06:20:58;48.00;;;10.43;;
37609;SDS011;23457;51.966;8.230;2023-03-26T06:23:36;42.53;;;10.50;;
37609;SDS011;23457;51.966;8.230;2023-03-26T06:26:13;48.85;;;10.32;;
37609;SDS011;23457;51.966;8.230;2023-03-26T06:29:13;40.45;;;10.48;;
37609;SDS011;23457;51.966;8.230;2023-03-26T06:32:15;51.67;;;11.10;;
37609;SDS011;23457;51.966;8.230;2023-03-26T06:35:04;42.65;;;11.68;;
37609;SDS011;23457;51.966;8.230;2023-03-26T06:37:31;40.92;;;10.90;;
37609;SDS011;23457;51.966;8.230;2023-03-26T06:40:00;39.80;;;12.45;;
37609;SDS011;23457;51.966;8.230;2023-03-26T06:42:47;41.17;;;11.90;;
37609;SDS011;23457;51.966;8.230;2023-03-26T06:45:54;46.00;;;11.93;;
37609;SDS011;23457;51.966;8.230;2023-03-26T06:48:36;37.63;;;11.63;;
37609;SDS011;23457;51.966;8.230;2023-03-26T06:51:22;39.65;;;12.25;;
37609;SDS011;23457;51.966;8.230;2023-03-26T06:54:07;35.08;;;12.02;;
37609;SDS011;23457;51.966;8.230;2023-03-26T06:56:43;39.03;;;12.38;;
37609;SDS011;23457;51.966;8.230;2023-03-26T06:59:25;47.92;;;13.40;;
37609;SDS011;23457;51.966;8.230;2023-03-26T07:02:10;40.33;;;12.38;;
37609;SDS011;23457;51.966;8.230;2023-03-26T07:04:55;41.65;;;12.98;;
37609;SDS011;23457;51.966;8.230;2023-03-26T07:07:41;40.22;;;12.55;;
37609;SDS011;23457;51.966;8.230;2023-03-26T07:10:32;38.67;;;12.48;;
37609;SDS011;23457;51.966;8.230;2023-03-26T07:13:10;38.47;;;12.23;;
37609;SDS011;23457;51.966;8.230;2023-03-26T07:15:59;39.58;;;12.50;;
37609;SDS011;23457;51.966;8.230;2023-03-26T07:19:02;40.15;;;12.38;;
37609;SDS011;23457;51.966;8.230;2023-03-26T07:21:33;34.20;;;11.85;;
37609;SDS011;23457;51.966;8.230;2023-03-26T07:24:08;51.03;;;12.95;;
37609;SDS011;23457;51.966;8.230;2023-03-26T07:30:20;35.75;;;12.32;;
37609;SDS011;23457;51.966;8.230;2023-03-26T07:33:27;34.05;;;11.98;;
37609;SDS011;23457;51.966;8.230;2023-03-26T07:36:18;37.03;;;12.20;;
37609;SDS011;23457;51.966;8.230;2023-03-26T07:46:02;42.08;;;12.90;;
37609;SDS011;23457;51.966;8.230;2023-03-26T07:48:47;48.25;;;13.30;;
37609;SDS011;23457;51.966;8.230;2023-03-26T07:51:34;41.08;;;12.98;;
37609;SDS011;23457;51.966;8.230;2023-03-26T07:54:19;32.33;;;12.95;;
37609;SDS011;23457;51.966;8.230;2023-03-26T07:56:57;44.65;;;12.75;;
37609;SDS011;23457;51.966;8.230;2023-03-26T07:59:33;47.92;;;13.85;;
37609;SDS011;23457;51.966;8.230;2023-03-26T08:08:14;38.60;;;13.13;;
37609;SDS011;23457;51.966;8.230;2023-03-26T08:14:05;49.92;;;13.77;;
37609;SDS011;23457;51.966;8.230;2023-03-26T08:16:48;34.05;;;13.50;;
37609;SDS011;23457;51.966;8.230;2023-03-26T08:26:30;41.80;;;15.30;;
37609;SDS011;23457;51.966;8.230;2023-03-26T08:31:38;39.55;;;14.57;;
37609;SDS011;23457;51.966;8.230;2023-03-26T08:34:08;41.40;;;14.65;;
37609;SDS011;23457;51.966;8.230;2023-03-26T08:36:37;48.45;;;15.10;;
37609;SDS011;23457;51.966;8.230;2023-03-26T08:39:04;44.63;;;15.77;;
37609;SDS011;23457;51.966;8.230;2023-03-26T08:55:48;44.65;;;16.75;;
37609;SDS011;23457;51.966;8.230;2023-03-26T09:01:16;53.53;;;17.67;;
37609;SDS011;23457;51.966;8.230;2023-03-26T09:03:52;43.42;;;16.73;;
37609;SDS011;23457;51.966;8.230;2023-03-26T09:17:51;38.97;;;16.67;;
37609;SDS011;23457;51.966;8.230;2023-03-26T09:27:06;46.67;;;17.35;;
37609;SDS011;23457;51.966;8.230;2023-03-26T09:29:18;43.60;;;18.35;;
37609;SDS011;23457;51.966;8.230;2023-03-26T09:40:54;48.08;;;18.45;;
37609;SDS011;23457;51.966;8.230;2023-03-26T09:46:45;50.05;;;18.67;;
37609;SDS011;23457;51.966;8.230;2023-03-26T09:54:55;47.80;;;18.23;;
37609;SDS011;23457;51.966;8.230;2023-03-26T10:00:25;46.35;;;19.25;;
37609;SDS011;23457;51.966;8.230;2023-03-26T10:05:56;49.08;;;19.70;;
37609;SDS011;23457;51.966;8.230;2023-03-26T10:13:50;52.10;;;20.88;;
37609;SDS011;23457;51.966;8.230;2023-03-26T10:16:45;44.13;;;18.95;;
37609;SDS011;23457;51.966;8.230;2023-03-26T10:24:42;46.10;;;18.85;;
37609;SDS011;23457;51.966;8.230;2023-03-26T10:27:19;50.40;;;15.73;;
37609;SDS011;23457;51.966;8.230;2023-03-26T10:35:38;42.17;;;14.27;;
37609;SDS011;23457;51.966;8.230;2023-03-26T10:38:15;34.85;;;10.50;;
37609;SDS011;23457;51.966;8.230;2023-03-26T10:46:59;25.30;;;8.43;;
37609;SDS011;23457;51.966;8.230;2023-03-26T10:52:18;26.05;;;9.15;;
37609;SDS011;23457;51.966;8.230;2023-03-26T10:55:13;27.77;;;8.70;;
37609;SDS011;23457;51.966;8.230;2023-03-26T11:00:25;35.92;;;7.50;;
37609;SDS011;23457;51.966;8.230;2023-03-26T11:11:03;28.00;;;5.22;;
37609;SDS011;23457;51.966;8.230;2023-03-26T11:14:06;29.45;;;6.10;;
37609;SDS011;23457;51.966;8.230;2023-03-26T11:16:51;30.17;;;6.13;;
37609;SDS011;23457;51.966;8.230;2023-03-26T11:32:06;30.40;;;5.57;;
37609;SDS011;23457;51.966;8.230;2023-03-26T11:34:42;31.73;;;6.72;;
37609;SDS011;23457;51.966;8.230;2023-03-26T11:37:16;27.83;;;6.75;;
37609;SDS011;23457;51.966;8.230;2023-03-26T11:39:49;32.47;;;7.03;;
37609;SDS011;23457;51.966;8.230;2023-03-26T11:42:21;31.67;;;8.50;;
37609;SDS011;23457;51.966;8.230;2023-03-26T11:44:54;33.42;;;7.40;;
37609;SDS011;23457;51.966;8.230;2023-03-26T11:47:23;32.20;;;6.45;;
37609;SDS011;23457;51.966;8.230;2023-03-26T11:49:56;25.50;;;5.85;;
37609;SDS011;23457;51.966;8.230;2023-03-26T11:52:25;21.02;;;5.53;;
37609;SDS011;23457;51.966;8.230;2023-03-26T11:54:52;30.38;;;6.70;;
37609;SDS011;23457;51.966;8.230;2023-03-26T11:57:24;27.95;;;6.88;;
37609;SDS011;23457;51.966;8.230;2023-03-26T12:00:03;29.13;;;6.97;;
37609;SDS011;23457;51.966;8.230;2023-03-26T12:02:42;29.80;;;6.05;;
37609;SDS011;23457;51.966;8.230;2023-03-26T12:12:53;19.52;;;3.60;;
37609;SDS011;23457;51.966;8.230;2023-03-26T12:15:23;12.55;;;3.25;;
37609;SDS011;23457;51.966;8.230;2023-03-26T12:17:52;15.27;;;3.10;;
37609;SDS011;23457;51.966;8.230;2023-03-26T12:25:18;13.13;;;3.78;;
37609;SDS011;23457;51.966;8.230;2023-03-26T12:27:48;17.95;;;4.07;;
37609;SDS011;23457;51.966;8.230;2023-03-26T12:32:51;18.25;;;4.25;;
37609;SDS011;23457;51.966;8.230;2023-03-26T12:35:25;18.23;;;4.43;;
37609;SDS011;23457;51.966;8.230;2023-03-26T12:40:44;20.05;;;7.28;;
37609;SDS011;23457;51.966;8.230;2023-03-26T12:43:24;19.33;;;8.13;;
37609;SDS011;23457;51.966;8.230;2023-03-26T12:46:33;25.65;;;9.98;;
37609;SDS011;23457;51.966;8.230;2023-03-26T12:49:21;21.43;;;9.60;;
37609;SDS011;23457;51.966;8.230;2023-03-26T12:51:55;22.63;;;8.20;;
37609;SDS011;23457;51.966;8.230;2023-03-26T12:55:04;17.20;;;7.80;;
37609;SDS011;23457;51.966;8.230;2023-03-26T12:57:50;17.95;;;8.18;;
37609;SDS011;23457;51.966;8.230;2023-03-26T13:00:43;17.90;;;7.60;;
37609;SDS011;23457;51.966;8.230;2023-03-26T13:03:37;16.30;;;6.53;;
37609;SDS011;23457;51.966;8.230;2023-03-26T13:06:29;13.70;;;6.93;;
37609;SDS011;23457;51.966;8.230;2023-03-26T13:20:18;19.50;;;8.95;;
37609;SDS011;23457;51.966;8.230;2023-03-26T13:23:21;12.65;;;7.13;;
37609;SDS011;23457;51.966;8.230;2023-03-26T13:29:17;12.57;;;5.82;;
37609;SDS011;23457;51.966;8.230;2023-03-26T13:48:10;6.38;;;3.42;;
37609;SDS011;23457;51.966;8.230;2023-03-26T13:50:41;6.57;;;4.93;;
37609;SDS011;23457;51.966;8.230;2023-03-26T13:53:23;5.32;;;3.50;;
37609;SDS011;23457;51.966;8.230;2023-03-26T13:55:53;6.35;;;4.57;;
37609;SDS011;23457;51.966;8.230;2023-03-26T13:58:24;9.02;;;4.60;;
37609;SDS011;23457;51.966;8.230;2023-03-26T14:06:43;8.23;;;3.90;;
37609;SDS011;23457;51.966;8.230;2023-03-26T14:12:13;11.00;;;3.90;;
37609;SDS011;23457;51.966;8.230;2023-03-26T14:14:49;7.13;;;4.20;;
37609;SDS011;23457;51.966;8.230;2023-03-26T14:23:32;9.68;;;3.90;;
37609;SDS011;23457;51.966;8.230;2023-03-26T14:31:41;7.28;;;5.25;;
37609;SDS011;23457;51.966;8.230;2023-03-26T14:37:19;14.32;;;7.97;;
37609;SDS011;23457;51.966;8.230;2023-03-26T14:40:06;15.15;;;8.57;;
37609;SDS011;23457;51.966;8.230;2023-03-26T14:42:52;13.70;;;6.60;;
37609;SDS011;23457;51.966;8.230;2023-03-26T14:54:15;9.48;;;5.57;;
37609;SDS011;23457;51.966;8.230;2023-03-26T14:56:48;12.95;;;5.75;;
37609;SDS011;23457;51.966;8.230;2023-03-26T15:08:25;19.27;;;5.88;;
37609;SDS011;23457;51.966;8.230;2023-03-26T15:17:08;26.25;;;7.10;;
37609;SDS011;23457;51.966;8.230;2023-03-26T15:28:46;20.70;;;6.10;;
37609;SDS011;23457;51.966;8.230;2023-03-26T15:37:23;24.75;;;7.50;;
37609;SDS011;23457;51.966;8.230;2023-03-26T15:45:31;15.57;;;5.18;;
37609;SDS011;23457;51.966;8.230;2023-03-26T15:53:24;29.20;;;8.90;;
37609;SDS011;23457;51.966;8.230;2023-03-26T16:03:53;18.98;;;4.95;;
37609;SDS011;23457;51.966;8.230;2023-03-26T16:12:28;18.52;;;4.15;;
37609;SDS011;23457;51.966;8.230;2023-03-26T16:15:12;14.65;;;4.13;;
37609;SDS011;23457;51.966;8.230;2023-03-26T16:20:48;17.75;;;5.30;;
37609;SDS011;23457;51.966;8.230;2023-03-26T16:26:17;17.80;;;4.88;;
37609;SDS011;23457;51.966;8.230;2023-03-26T16:36:33;16.17;;;4.75;;
37609;SDS011;23457;51.966;8.230;2023-03-26T16:41:33;13.77;;;3.80;;
37609;SDS011;23457;51.966;8.230;2023-03-26T16:44:56;22.48;;;3.90;;
37609;SDS011;23457;51.966;8.230;2023-03-26T16:50:50;20.25;;;4.38;;
37609;SDS011;23457;51.966;8.230;2023-03-26T17:02:33;16.40;;;3.28;;
37609;SDS011;23457;51.966;8.230;2023-03-26T17:05:23;15.13;;;2.95;;
37609;SDS011;23457;51.966;8.230;2023-03-26T17:10:46;11.95;;;3.38;;
37609;SDS011;23457;51.966;8.230;2023-03-26T17:13:24;15.63;;;3.33;;
37609;SDS011;23457;51.966;8.230;2023-03-26T17:21:40;17.08;;;3.03;;
37609;SDS011;23457;51.966;8.230;2023-03-26T17:27:50;17.35;;;2.58;;
37609;SDS011;23457;51.966;8.230;2023-03-26T17:35:44;17.83;;;3.10;;
37609;SDS011;23457;51.966;8.230;2023-03-26T17:40:57;14.52;;;4.07;;
37609;SDS011;23457;51.966;8.230;2023-03-26T17:46:17;33.03;;;6.55;;
37609;SDS011;23457;51.966;8.230;2023-03-26T17:52:03;13.38;;;2.08;;
37609;SDS011;23457;51.966;8.230;2023-03-26T17:54:42;9.85;;;2.10;;
37609;SDS011;23457;51.966;8.230;2023-03-26T17:57:17;11.07;;;2.03;;
37609;SDS011;23457;51.966;8.230;2023-03-26T17:59:48;13.30;;;2.30;;
37609;SDS011;23457;51.966;8.230;2023-03-26T18:02:19;12.77;;;2.03;;
37609;SDS011;23457;51.966;8.230;2023-03-26T18:04:53;20.10;;;2.35;;
37609;SDS011;23457;51.966;8.230;2023-03-26T18:11:04;13.32;;;1.65;;
37609;SDS011;23457;51.966;8.230;2023-03-26T18:16:11;20.13;;;3.65;;
37609;SDS011;23457;51.966;8.230;2023-03-26T18:18:50;19.92;;;2.75;;
37609;SDS011;23457;51.966;8.230;2023-03-26T18:21:34;15.02;;;2.17;;
37609;SDS011;23457;51.966;8.230;2023-03-26T18:24:03;17.02;;;2.58;;
37609;SDS011;23457;51.966;8.230;2023-03-26T18:31:54;17.08;;;2.05;;
37609;SDS011;23457;51.966;8.230;2023-03-26T18:34:23;10.45;;;1.85;;
37609;SDS011;23457;51.966;8.230;2023-03-26T18:39:54;8.93;;;2.28;;
37609;SDS011;23457;51.966;8.230;2023-03-26T18:42:28;19.42;;;2.92;;
37609;SDS011;23457;51.966;8.230;2023-03-26T18:44:56;14.52;;;2.10;;
37609;SDS011;23457;51.966;8.230;2023-03-26T18:47:28;17.42;;;1.95;;
37609;SDS011;23457;51.966;8.230;2023-03-26T18:49:55;17.05;;;2.55;;
37609;SDS011;23457;51.966;8.230;2023-03-26T18:52:24;16.77;;;2.40;;
37609;SDS011;23457;51.966;8.230;2023-03-26T18:54:53;13.18;;;1.95;;
37609;SDS011;23457;51.966;8.230;2023-03-26T18:57:22;22.00;;;3.03;;
37609;SDS011;23457;51.966;8.230;2023-03-26T18:59:54;17.50;;;2.17;;
37609;SDS011;23457;51.966;8.230;2023-03-26T19:02:35;14.80;;;2.40;;
37609;SDS011;23457;51.966;8.230;2023-03-26T19:05:03;13.52;;;2.28;;
37609;SDS011;23457;51.966;8.230;2023-03-26T19:07:31;16.65;;;2.10;;
37609;SDS011;23457;51.966;8.230;2023-03-26T19:10:00;18.00;;;2.28;;
37609;SDS011;23457;51.966;8.230;2023-03-26T19:12:28;19.75;;;2.20;;
37609;SDS011;23457;51.966;8.230;2023-03-26T19:17:30;18.30;;;2.70;;
37609;SDS011;23457;51.966;8.230;2023-03-26T19:19:59;19.20;;;2.78;;
37609;SDS011;23457;51.966;8.230;2023-03-26T19:22:27;17.23;;;2.03;;
37609;SDS011;23457;51.966;8.230;2023-03-26T19:24:56;16.40;;;2.40;;
37609;SDS011;23457;51.966;8.230;2023-03-26T19:27:26;17.27;;;2.90;;
37609;SDS011;23457;51.966;8.230;2023-03-26T19:29:53;18.73;;;3.05;;
37609;SDS011;23457;51.966;8.230;2023-03-26T19:32:22;15.88;;;2.03;;
37609;SDS011;23457;51.966;8.230;2023-03-26T19:34:54;11.35;;;2.00;;
37609;SDS011;23457;51.966;8.230;2023-03-26T19:37:25;19.20;;;2.83;;
37609;SDS011;23457;51.966;8.230;2023-03-26T19:42:47;15.18;;;2.63;;
37609;SDS011;23457;51.966;8.230;2023-03-26T19:45:19;12.60;;;1.73;;
37609;SDS011;23457;51.966;8.230;2023-03-26T19:47:48;12.77;;;2.00;;
37609;SDS011;23457;51.966;8.230;2023-03-26T19:50:33;17.00;;;2.47;;
37609;SDS011;23457;51.966;8.230;2023-03-26T19:53:12;13.77;;;1.85;;
37609;SDS011;23457;51.966;8.230;2023-03-26T19:55:55;12.00;;;2.25;;
37609;SDS011;23457;51.966;8.230;2023-03-26T19:58:35;11.55;;;1.77;;
37609;SDS011;23457;51.966;8.230;2023-03-26T20:01:02;12.82;;;1.70;;
37609;SDS011;23457;51.966;8.230;2023-03-26T20:03:35;13.38;;;1.92;;
37609;SDS011;23457;51.966;8.230;2023-03-26T20:06:05;15.23;;;2.15;;
37609;SDS011;23457;51.966;8.230;2023-03-26T20:08:35;20.90;;;2.25;;
37609;SDS011;23457;51.966;8.230;2023-03-26T20:11:02;13.13;;;2.25;;
37609;SDS011;23457;51.966;8.230;2023-03-26T20:13:28;13.93;;;1.75;;
37609;SDS011;23457;51.966;8.230;2023-03-26T20:15:59;12.10;;;1.45;;
37609;SDS011;23457;51.966;8.230;2023-03-26T20:21:09;12.30;;;1.73;;
37609;SDS011;23457;51.966;8.230;2023-03-26T20:23:38;14.07;;;1.85;;
37609;SDS011;23457;51.966;8.230;2023-03-26T20:26:09;6.28;;;1.45;;
37609;SDS011;23457;51.966;8.230;2023-03-26T20:28:37;21.23;;;2.63;;
37609;SDS011;23457;51.966;8.230;2023-03-26T20:31:17;11.50;;;2.22;;
37609;SDS011;23457;51.966;8.230;2023-03-26T20:33:50;13.13;;;2.42;;
37609;SDS011;23457;51.966;8.230;2023-03-26T20:36:18;12.02;;;2.10;;
37609;SDS011;23457;51.966;8.230;2023-03-26T20:39:00;16.13;;;2.78;;
37609;SDS011;23457;51.966;8.230;2023-03-26T20:41:31;17.20;;;3.05;;
37609;SDS011;23457;51.966;8.230;2023-03-26T20:43:59;16.30;;;2.05;;
37609;SDS011;23457;51.966;8.230;2023-03-26T20:46:26;13.88;;;1.98;;
37609;SDS011;23457;51.966;8.230;2023-03-26T20:48:56;17.40;;;3.17;;
37609;SDS011;23457;51.966;8.230;2023-03-26T20:51:23;15.80;;;2.42;;
37609;SDS011;23457;51.966;8.230;2023-03-26T20:53:50;18.48;;;2.30;;
37609;SDS011;23457;51.966;8.230;2023-03-26T20:56:17;11.35;;;2.50;;
37609;SDS011;23457;51.966;8.230;2023-03-26T20:58:45;12.35;;;1.60;;
37609;SDS011;23457;51.966;8.230;2023-03-26T21:01:36;12.88;;;1.85;;
37609;SDS011;23457;51.966;8.230;2023-03-26T21:04:04;17.17;;;1.90;;
37609;SDS011;23457;51.966;8.230;2023-03-26T21:06:31;16.90;;;2.17;;
37609;SDS011;23457;51.966;8.230;2023-03-26T21:08:57;19.75;;;3.90;;
37609;SDS011;23457;51.966;8.230;2023-03-26T21:11:27;14.57;;;2.45;;
37609;SDS011;23457;51.966;8.230;2023-03-26T21:14:05;17.90;;;1.98;;
37609;SDS011;23457;51.966;8.230;2023-03-26T21:16:39;17.45;;;2.25;;
37609;SDS011;23457;51.966;8.230;2023-03-26T21:19:07;15.25;;;1.67;;
37609;SDS011;23457;51.966;8.230;2023-03-26T21:27:11;20.85;;;2.13;;
37609;SDS011;23457;51.966;8.230;2023-03-26T21:29:51;19.23;;;3.47;;
37609;SDS011;23457;51.966;8.230;2023-03-26T21:32:19;15.68;;;2.17;;